Darstellungsparameter: Aktuell verwendete Einstellungen:
Skalierung der Graphiken ... ?
xyx+y,   Skalierungsfaktor:      Skalierung: Modus: x, Faktor: 1
Darstellungszeitraum ... ?
Vom - - bis: - -   Zeitraum: 14.11.2019 - 14.11.2019
Min/Max/Avg-Anzeige ... ?
Zeige MMA aktuell
Zeige MMA Monat
Zeige MMA alles
Zeige --A aktuell
Zeige --A Monat
Zeige --A alles
Keine MMA-Anzeige
MMA:
Keine MMA-Graphiken
MMA-Basis: 14.11.2019 - 14.11.2019
Quicknavigation für Darstellung... ?
Tage:      1T, 2T, 3T, 5T -1T -2T -3T -5T +1T +2T +3T +5T
Wochen: 1W, 2W, 3W -1W -2W -3W +1W +2W +3W
Monate: 1M, 3M, 6M -1M -3M -6M +1M +3M +6M
Jahre:    1J, 3J, 5J, 10J -1J -3J -5J -10J +1J +3J +5J +10J
Nutze für die Darstellung ... ?
Originaldaten oder Mittelwerte auf ...
Stundenbasis Tagesbasis Wochenbasis
Monatsbasis Jahresbasis      Datenbasis: Original-Daten
Darstellen als:
Statistik (Auto) Statistik J:M      Darstellung:
Zur Graphik,    zurück zur Übersicht aller Sensoren.
 
Tabellarische Datenbersicht: ?
 
Sensor: Nr:Datum:Temp:Feuchte:Taupunkt:
Aussen-T/F 1 14-11-2019 00:00:00 4.6 C 93 % 3.57 C
2 14-11-2019 00:05:00 4.7 C 93 % 3.67 C
3 14-11-2019 00:10:00 4.7 C 93 % 3.67 C
4 14-11-2019 00:15:00 4.8 C 93 % 3.77 C
5 14-11-2019 00:20:00 4.9 C 93 % 3.87 C
6 14-11-2019 00:25:00 4.9 C 94 % 4.02 C
7 14-11-2019 00:30:00 5 C 94 % 4.12 C
8 14-11-2019 00:35:00 5.1 C 94 % 4.22 C
9 14-11-2019 00:40:00 5.1 C 93 % 4.06 C
10 14-11-2019 00:45:00 5.2 C 93 % 4.16 C
11 14-11-2019 00:50:00 5.2 C 94 % 4.32 C
12 14-11-2019 00:55:00 5.2 C 93 % 4.16 C
13 14-11-2019 01:00:00 5.2 C 93 % 4.16 C
14 14-11-2019 01:05:00 5.1 C 93 % 4.06 C
15 14-11-2019 01:10:00 5 C 92 % 3.81 C
16 14-11-2019 01:15:00 4.8 C 92 % 3.61 C
17 14-11-2019 01:20:00 4.8 C 92 % 3.61 C
18 14-11-2019 01:25:00 4.8 C 93 % 3.77 C
19 14-11-2019 01:30:00 4.7 C 93 % 3.67 C
20 14-11-2019 01:35:00 4.7 C 93 % 3.67 C
21 14-11-2019 01:40:00 4.7 C 93 % 3.67 C
22 14-11-2019 01:45:00 4.7 C 93 % 3.67 C
23 14-11-2019 01:50:00 4.7 C 93 % 3.67 C
24 14-11-2019 01:55:00 4.6 C 93 % 3.57 C
25 14-11-2019 02:00:00 4.6 C 94 % 3.72 C
Sensor: Nr:Datum:Temp:Feuchte:Taupunkt:
Aussen-T/F 26 14-11-2019 02:05:00 4.7 C 94 % 3.82 C
27 14-11-2019 02:10:00 4.7 C 94 % 3.82 C
28 14-11-2019 02:15:00 4.7 C 94 % 3.82 C
29 14-11-2019 02:20:00 4.7 C 94 % 3.82 C
30 14-11-2019 02:25:00 4.7 C 94 % 3.82 C
31 14-11-2019 02:30:00 4.8 C 94 % 3.92 C
32 14-11-2019 02:35:00 4.8 C 94 % 3.92 C
33 14-11-2019 02:40:00 4.9 C 95 % 4.17 C
34 14-11-2019 02:45:00 4.9 C 95 % 4.17 C
35 14-11-2019 02:50:00 5 C 95 % 4.27 C
36 14-11-2019 02:55:00 5.1 C 94 % 4.22 C
37 14-11-2019 03:00:00 5.2 C 94 % 4.32 C
38 14-11-2019 03:05:00 5.3 C 94 % 4.41 C
39 14-11-2019 03:10:00 5.3 C 94 % 4.41 C
40 14-11-2019 03:15:00 5.3 C 94 % 4.41 C
41 14-11-2019 03:20:00 5.3 C 94 % 4.41 C
42 14-11-2019 03:25:00 5.4 C 94 % 4.51 C
43 14-11-2019 03:30:00 5.4 C 94 % 4.51 C
44 14-11-2019 03:35:00 5.4 C 94 % 4.51 C
45 14-11-2019 03:40:00 5.5 C 94 % 4.61 C
46 14-11-2019 03:45:00 5.6 C 94 % 4.71 C
47 14-11-2019 03:50:00 5.7 C 93 % 4.66 C
48 14-11-2019 03:55:00 5.7 C 93 % 4.66 C
49 14-11-2019 04:00:00 5.8 C 93 % 4.76 C
50 14-11-2019 04:05:00 5.8 C 93 % 4.76 C
Sensor: Nr:Datum:Temp:Feuchte:Taupunkt:
Aussen-T/F 51 14-11-2019 04:10:00 5.8 C 93 % 4.76 C
52 14-11-2019 04:15:00 5.8 C 92 % 4.6 C
53 14-11-2019 04:20:00 5.8 C 92 % 4.6 C
54 14-11-2019 04:25:00 5.8 C 92 % 4.6 C
55 14-11-2019 04:30:00 5.7 C 92 % 4.5 C
56 14-11-2019 04:35:00 5.6 C 92 % 4.41 C
57 14-11-2019 04:40:00 5.6 C 92 % 4.41 C
58 14-11-2019 04:45:00 5.6 C 92 % 4.41 C
59 14-11-2019 04:50:00 5.5 C 92 % 4.31 C
60 14-11-2019 04:55:00 5.5 C 92 % 4.31 C
61 14-11-2019 05:00:00 5.4 C 93 % 4.36 C
62 14-11-2019 05:05:00 5.2 C 92 % 4.01 C
63 14-11-2019 05:10:00 4.9 C 91 % 3.56 C
64 14-11-2019 05:15:00 4.7 C 92 % 3.51 C
65 14-11-2019 05:20:00 4.6 C 92 % 3.42 C
66 14-11-2019 05:25:00 4.6 C 93 % 3.57 C
67 14-11-2019 05:30:00 4.6 C 93 % 3.57 C
68 14-11-2019 05:35:00 4.7 C 94 % 3.82 C
69 14-11-2019 05:40:00 4.7 C 94 % 3.82 C
70 14-11-2019 05:45:00 4.8 C 94 % 3.92 C
71 14-11-2019 05:50:00 4.9 C 95 % 4.17 C
72 14-11-2019 05:55:00 5 C 95 % 4.27 C
73 14-11-2019 06:00:00 5 C 94 % 4.12 C
74 14-11-2019 06:05:00 4.9 C 94 % 4.02 C
75 14-11-2019 06:10:00 4.8 C 94 % 3.92 C
Sensor: Nr:Datum:Temp:Feuchte:Taupunkt:
Aussen-T/F 76 14-11-2019 06:15:00 4.7 C 93 % 3.67 C
77 14-11-2019 06:20:00 4.6 C 94 % 3.72 C
78 14-11-2019 06:25:00 4.5 C 94 % 3.62 C
79 14-11-2019 06:30:00 4.5 C 94 % 3.62 C
80 14-11-2019 06:35:00 4.5 C 94 % 3.62 C
81 14-11-2019 06:40:00 4.6 C 94 % 3.72 C
82 14-11-2019 06:45:00 4.7 C 95 % 3.97 C
83 14-11-2019 06:50:00 4.8 C 95 % 4.07 C
84 14-11-2019 06:55:00 4.9 C 95 % 4.17 C
85 14-11-2019 07:00:00 5 C 94 % 4.12 C
86 14-11-2019 07:05:00 5.1 C 94 % 4.22 C
87 14-11-2019 07:10:00 5.1 C 93 % 4.06 C
88 14-11-2019 07:15:00 5.2 C 92 % 4.01 C
89 14-11-2019 07:20:00 5.3 C 91 % 3.95 C
90 14-11-2019 07:25:00 5.3 C 91 % 3.95 C
91 14-11-2019 07:30:00 5.4 C 91 % 4.05 C
92 14-11-2019 07:35:00 5.4 C 90 % 3.89 C
93 14-11-2019 07:40:00 5.4 C 90 % 3.89 C
94 14-11-2019 07:45:00 5.3 C 90 % 3.8 C
95 14-11-2019 07:50:00 5.3 C 89 % 3.64 C
96 14-11-2019 07:55:00 5.3 C 89 % 3.64 C
97 14-11-2019 08:00:00 5.3 C 89 % 3.64 C
98 14-11-2019 08:05:00 5.3 C 89 % 3.64 C
99 14-11-2019 08:10:00 5.3 C 89 % 3.64 C
100 14-11-2019 08:15:00 5.2 C 89 % 3.54 C
Sensor: Nr:Datum:Temp:Feuchte:Taupunkt:
Aussen-T/F 101 14-11-2019 08:20:00 5.2 C 89 % 3.54 C
102 14-11-2019 08:25:00 5.3 C 89 % 3.64 C
103 14-11-2019 08:30:00 5.3 C 89 % 3.64 C
104 14-11-2019 08:35:00 5.3 C 89 % 3.64 C
105 14-11-2019 08:40:00 5.3 C 90 % 3.8 C
106 14-11-2019 08:45:00 5.3 C 89 % 3.64 C
107 14-11-2019 08:50:00 5.3 C 89 % 3.64 C
108 14-11-2019 08:55:00 5.3 C 90 % 3.8 C
109 14-11-2019 09:00:00 5.3 C 89 % 3.64 C
110 14-11-2019 09:05:00 5.3 C 89 % 3.64 C
111 14-11-2019 09:10:00 5.4 C 89 % 3.74 C
112 14-11-2019 09:15:00 5.4 C 89 % 3.74 C
113 14-11-2019 09:20:00 5.4 C 89 % 3.74 C
114 14-11-2019 09:25:00 5.5 C 88 % 3.67 C
115 14-11-2019 09:30:00 5.7 C 88 % 3.87 C
116 14-11-2019 09:35:00 5.7 C 87 % 3.71 C
117 14-11-2019 09:40:00 5.8 C 86 % 3.64 C
118 14-11-2019 09:45:00 5.9 C 86 % 3.74 C
119 14-11-2019 09:50:00 6.1 C 85 % 3.77 C
120 14-11-2019 09:55:00 6.2 C 85 % 3.87 C
121 14-11-2019 10:00:00 6.2 C 84 % 3.7 C
122 14-11-2019 10:05:00 6.3 C 85 % 3.97 C
123 14-11-2019 10:10:00 6.4 C 84 % 3.9 C
124 14-11-2019 10:15:00 6.4 C 84 % 3.9 C
125 14-11-2019 10:20:00 6.6 C 84 % 4.1 C
Sensor: Nr:Datum:Temp:Feuchte:Taupunkt:
Aussen-T/F 126 14-11-2019 10:25:00 6.6 C 83 % 3.92 C
127 14-11-2019 10:30:00 6.7 C 83 % 4.02 C
128 14-11-2019 10:35:00 6.8 C 83 % 4.12 C
129 14-11-2019 10:40:00 6.9 C 84 % 4.39 C
130 14-11-2019 10:45:00 7 C 82 % 4.14 C
131 14-11-2019 10:50:00 7.1 C 82 % 4.24 C
132 14-11-2019 10:55:00 7.2 C 82 % 4.34 C
133 14-11-2019 11:00:00 7.3 C 81 % 4.26 C
134 14-11-2019 11:05:00 7.3 C 81 % 4.26 C
135 14-11-2019 11:10:00 7.4 C 79 % 4 C
136 14-11-2019 11:15:00 7.6 C 78 % 4.02 C
137 14-11-2019 11:20:00 7.7 C 77 % 3.93 C
138 14-11-2019 11:25:00 7.8 C 76 % 3.84 C
139 14-11-2019 11:30:00 8 C 76 % 4.04 C
140 14-11-2019 11:35:00 8.1 C 75 % 3.94 C
141 14-11-2019 11:40:00 8.2 C 75 % 4.04 C
142 14-11-2019 11:45:00 8.3 C 74 % 3.95 C
143 14-11-2019 11:50:00 8.3 C 73 % 3.75 C
144 14-11-2019 11:55:00 8.4 C 72 % 3.65 C
145 14-11-2019 12:00:00 8.6 C 72 % 3.85 C
146 14-11-2019 12:05:00 8.7 C 71 % 3.74 C
147 14-11-2019 12:10:00 8.8 C 71 % 3.84 C
148 14-11-2019 12:15:00 8.8 C 70 % 3.64 C
149 14-11-2019 12:20:00 8.9 C 70 % 3.74 C
150 14-11-2019 12:25:00 8.9 C 71 % 3.94 C
Sensor: Nr:Datum:Temp:Feuchte:Taupunkt:
Aussen-T/F 151 14-11-2019 12:30:00 8.8 C 69 % 3.44 C
152 14-11-2019 12:35:00 8.8 C 69 % 3.44 C
153 14-11-2019 12:40:00 8.7 C 68 % 3.13 C
154 14-11-2019 12:45:00 8.6 C 70 % 3.45 C
155 14-11-2019 12:50:00 8.6 C 70 % 3.45 C
156 14-11-2019 12:55:00 8.5 C 72 % 3.75 C
157 14-11-2019 13:00:00 8.5 C 71 % 3.55 C
158 14-11-2019 13:05:00 8.6 C 71 % 3.65 C
159 14-11-2019 13:10:00 8.6 C 71 % 3.65 C
160 14-11-2019 13:15:00 8.6 C 70 % 3.45 C
161 14-11-2019 13:20:00 8.7 C 70 % 3.54 C
162 14-11-2019 13:25:00 8.7 C 69 % 3.34 C
163 14-11-2019 13:30:00 8.7 C 71 % 3.74 C
164 14-11-2019 13:35:00 8.7 C 70 % 3.54 C
165 14-11-2019 13:40:00 8.7 C 70 % 3.54 C
166 14-11-2019 13:45:00 8.8 C 71 % 3.84 C
167 14-11-2019 13:50:00 8.8 C 70 % 3.64 C
168 14-11-2019 13:55:00 8.8 C 69 % 3.44 C
169 14-11-2019 14:00:00 8.9 C 69 % 3.53 C
170 14-11-2019 14:05:00 9 C 68 % 3.42 C
171 14-11-2019 14:10:00 9.1 C 68 % 3.52 C
172 14-11-2019 14:15:00 9.1 C 67 % 3.31 C
173 14-11-2019 14:20:00 9.1 C 68 % 3.52 C
174 14-11-2019 14:25:00 9.1 C 67 % 3.31 C
175 14-11-2019 14:30:00 9.1 C 66 % 3.09 C
Sensor: Nr:Datum:Temp:Feuchte:Taupunkt:
Aussen-T/F 176 14-11-2019 14:35:00 9.1 C 67 % 3.31 C
177 14-11-2019 14:40:00 9 C 67 % 3.21 C
178 14-11-2019 14:45:00 8.9 C 67 % 3.12 C
179 14-11-2019 14:50:00 8.9 C 68 % 3.32 C
180 14-11-2019 14:55:00 8.9 C 71 % 3.94 C
181 14-11-2019 15:00:00 8.8 C 68 % 3.23 C
182 14-11-2019 15:05:00 8.7 C 68 % 3.13 C
183 14-11-2019 15:10:00 8.6 C 70 % 3.45 C
184 14-11-2019 15:15:00 8.5 C 71 % 3.55 C
185 14-11-2019 15:20:00 8.3 C 70 % 3.16 C
186 14-11-2019 15:25:00 8.3 C 74 % 3.95 C
187 14-11-2019 15:30:00 8.2 C 75 % 4.04 C
188 14-11-2019 15:35:00 8.1 C 76 % 4.13 C
189 14-11-2019 15:40:00 7.9 C 76 % 3.94 C
190 14-11-2019 15:45:00 7.8 C 78 % 4.21 C
191 14-11-2019 15:50:00 7.7 C 79 % 4.3 C
192 14-11-2019 15:55:00 7.5 C 79 % 4.1 C
193 14-11-2019 16:00:00 7.4 C 79 % 4 C
194 14-11-2019 16:05:00 7.3 C 79 % 3.91 C
195 14-11-2019 16:10:00 7.2 C 80 % 3.99 C
196 14-11-2019 16:15:00 7.1 C 80 % 3.89 C
197 14-11-2019 16:20:00 6.9 C 79 % 3.52 C
198 14-11-2019 16:25:00 6.8 C 80 % 3.6 C
199 14-11-2019 16:30:00 6.7 C 80 % 3.5 C
200 14-11-2019 16:35:00 6.5 C 79 % 3.13 C
Sensor: Nr:Datum:Temp:Feuchte:Taupunkt:
Aussen-T/F 201 14-11-2019 16:40:00 6.3 C 79 % 2.93 C
202 14-11-2019 16:45:00 6.1 C 80 % 2.92 C
203 14-11-2019 16:50:00 5.9 C 81 % 2.9 C
204 14-11-2019 16:55:00 5.8 C 81 % 2.8 C
205 14-11-2019 17:00:00 5.6 C 82 % 2.78 C
206 14-11-2019 17:05:00 5.4 C 82 % 2.58 C
207 14-11-2019 17:10:00 5.3 C 83 % 2.65 C
208 14-11-2019 17:15:00 5.2 C 83 % 2.56 C
209 14-11-2019 17:20:00 5.1 C 83 % 2.46 C
210 14-11-2019 17:25:00 5 C 83 % 2.36 C
211 14-11-2019 17:30:00 4.9 C 84 % 2.43 C
212 14-11-2019 17:35:00 4.8 C 84 % 2.33 C
213 14-11-2019 17:40:00 4.7 C 84 % 2.23 C
214 14-11-2019 17:45:00 4.6 C 85 % 2.3 C
215 14-11-2019 17:50:00 4.5 C 84 % 2.04 C
216 14-11-2019 17:55:00 4.5 C 85 % 2.2 C
217 14-11-2019 18:00:00 4.5 C 85 % 2.2 C
218 14-11-2019 18:05:00 4.5 C 85 % 2.2 C
219 14-11-2019 18:10:00 4.5 C 85 % 2.2 C
220 14-11-2019 18:15:00 4.5 C 86 % 2.37 C
221 14-11-2019 18:20:00 4.5 C 86 % 2.37 C
222 14-11-2019 18:25:00 4.5 C 86 % 2.37 C
223 14-11-2019 18:30:00 4.5 C 85 % 2.2 C
224 14-11-2019 18:35:00 4.5 C 85 % 2.2 C
225 14-11-2019 18:40:00 4.6 C 85 % 2.3 C
Sensor: Nr:Datum:Temp:Feuchte:Taupunkt:
Aussen-T/F 226 14-11-2019 18:45:00 4.5 C 85 % 2.2 C
227 14-11-2019 18:50:00 4.4 C 85 % 2.11 C
228 14-11-2019 18:55:00 4.3 C 85 % 2.01 C
229 14-11-2019 19:00:00 4.3 C 85 % 2.01 C
230 14-11-2019 19:05:00 4.2 C 86 % 2.07 C
231 14-11-2019 19:10:00 4.2 C 86 % 2.07 C
232 14-11-2019 19:15:00 4.1 C 86 % 1.97 C
233 14-11-2019 19:20:00 3.9 C 86 % 1.78 C
234 14-11-2019 19:25:00 3.8 C 86 % 1.68 C
235 14-11-2019 19:30:00 3.7 C 87 % 1.74 C
236 14-11-2019 19:35:00 3.7 C 87 % 1.74 C
237 14-11-2019 19:40:00 3.7 C 87 % 1.74 C
238 14-11-2019 19:45:00 3.6 C 87 % 1.64 C
239 14-11-2019 19:50:00 3.6 C 88 % 1.8 C
240 14-11-2019 19:55:00 3.6 C 88 % 1.8 C
241 14-11-2019 20:00:00 3.6 C 88 % 1.8 C
242 14-11-2019 20:05:00 3.6 C 88 % 1.8 C
243 14-11-2019 20:10:00 3.5 C 89 % 1.86 C
244 14-11-2019 20:15:00 3.5 C 89 % 1.86 C
245 14-11-2019 20:20:00 3.4 C 89 % 1.76 C
246 14-11-2019 20:25:00 3.4 C 89 % 1.76 C
247 14-11-2019 20:30:00 3.4 C 89 % 1.76 C
248 14-11-2019 20:35:00 3.4 C 89 % 1.76 C
249 14-11-2019 20:40:00 3.4 C 89 % 1.76 C
250 14-11-2019 20:45:00 3.4 C 89 % 1.76 C
Sensor: Nr:Datum:Temp:Feuchte:Taupunkt:
Aussen-T/F 251 14-11-2019 20:50:00 3.4 C 89 % 1.76 C
252 14-11-2019 20:55:00 3.4 C 89 % 1.76 C
253 14-11-2019 21:00:00 3.3 C 89 % 1.67 C
254 14-11-2019 21:05:00 3.2 C 89 % 1.57 C
255 14-11-2019 21:10:00 3 C 89 % 1.37 C
256 14-11-2019 21:15:00 2.9 C 90 % 1.43 C
257 14-11-2019 21:20:00 2.8 C 90 % 1.33 C
258 14-11-2019 21:25:00 2.8 C 91 % 1.48 C
259 14-11-2019 21:30:00 2.8 C 91 % 1.48 C
260 14-11-2019 21:35:00 2.8 C 91 % 1.48 C
261 14-11-2019 21:40:00 2.8 C 91 % 1.48 C
262 14-11-2019 21:45:00 2.7 C 91 % 1.38 C
263 14-11-2019 21:50:00 2.7 C 91 % 1.38 C
264 14-11-2019 21:55:00 2.6 C 91 % 1.28 C
265 14-11-2019 22:00:00 2.5 C 91 % 1.18 C
266 14-11-2019 22:05:00 2.6 C 92 % 1.43 C
267 14-11-2019 22:10:00 2.6 C 92 % 1.43 C
268 14-11-2019 22:15:00 2.6 C 92 % 1.43 C
269 14-11-2019 22:20:00 2.6 C 92 % 1.43 C
270 14-11-2019 22:25:00 2.5 C 92 % 1.34 C
271 14-11-2019 22:30:00 2.5 C 92 % 1.34 C
272 14-11-2019 22:35:00 2.5 C 93 % 1.49 C
273 14-11-2019 22:40:00 2.5 C 92 % 1.34 C
274 14-11-2019 22:45:00 2.6 C 92 % 1.43 C
275 14-11-2019 22:50:00 2.6 C 93 % 1.59 C
Sensor: Nr:Datum:Temp:Feuchte:Taupunkt:
Aussen-T/F 276 14-11-2019 22:55:00 2.6 C 93 % 1.59 C
277 14-11-2019 23:00:00 2.6 C 93 % 1.59 C
278 14-11-2019 23:05:00 2.6 C 93 % 1.59 C
279 14-11-2019 23:10:00 2.7 C 93 % 1.68 C
280 14-11-2019 23:15:00 2.7 C 93 % 1.68 C
281 14-11-2019 23:20:00 2.7 C 93 % 1.68 C
282 14-11-2019 23:25:00 2.7 C 93 % 1.68 C
283 14-11-2019 23:30:00 2.7 C 93 % 1.68 C
284 14-11-2019 23:35:00 2.8 C 93 % 1.78 C
285 14-11-2019 23:40:00 2.8 C 94 % 1.93 C
286 14-11-2019 23:45:00 2.8 C 94 % 1.93 C
287 14-11-2019 23:50:00 2.8 C 94 % 1.93 C
288 14-11-2019 23:55:00 2.8 C 93 % 1.78 C

Legende:
   Min
   Max


Maximal/Minimal-Werte vom 14.11.2019 - 14.11.2019

Sensor Min Max Avg
Temp
(Aussen-T/F)
2.5 °C
14-11-2019  22:00:00
9.1 °C
14-11-2019  14:10:00
5.51 °C
Feuchte
(Aussen-T/F)
66 %
14-11-2019  14:30:00
95 %
14-11-2019  02:40:00
85.95 %
Taupunkt
(Aussen-T/F)
1.18 C
14-11-2019  22:00:00
4.76 C
14-11-2019  04:00:00
3.25 C

Die Daten stammen von einer Davis Vantage Pro 2 Wetter-Station und werden unter Linux mit der Software wview2wettercgi und aufbereitet. Alle Angaben erfolgen ohne Gewähr für ihre Vollständigkeit oder Richtigkeit.
Kontakt: Rainer Krienke krienke@uni-koblenz.de . Meine Webseiten an der Uni Koblenz oder privat.
Version: $Revision: 0.78 $